sensor_id;sensor_type;location;lat;lon;timestamp;temperature;humidity
74923;HTU21D;64715;44.760;37.678;2023-02-03T00:00:00;-0.01;85.98
74923;HTU21D;64715;44.760;37.678;2023-02-03T00:01:01;-0.05;85.90
74923;HTU21D;64715;44.760;37.678;2023-02-03T00:02:02;-0.06;85.70
74923;HTU21D;64715;44.760;37.678;2023-02-03T00:03:03;-0.08;86.07
74923;HTU21D;64715;44.760;37.678;2023-02-03T00:04:05;-0.08;85.93
74923;HTU21D;64715;44.760;37.678;2023-02-03T00:05:06;-0.09;85.90
74923;HTU21D;64715;44.760;37.678;2023-02-03T00:06:07;-0.12;86.10
74923;HTU21D;64715;44.760;37.678;2023-02-03T00:07:12;-0.12;85.82
74923;HTU21D;64715;44.760;37.678;2023-02-03T00:08:16;-0.14;85.95
74923;HTU21D;64715;44.760;37.678;2023-02-03T00:09:18;-0.17;85.96
74923;HTU21D;64715;44.760;37.678;2023-02-03T00:10:20;-0.16;86.09
74923;HTU21D;64715;44.760;37.678;2023-02-03T00:11:22;-0.16;85.87
74923;HTU21D;64715;44.760;37.678;2023-02-03T00:12:22;-0.20;86.04
74923;HTU21D;64715;44.760;37.678;2023-02-03T00:13:24;-0.19;86.10
74923;HTU21D;64715;44.760;37.678;2023-02-03T00:14:26;-0.20;86.16
74923;HTU21D;64715;44.760;37.678;2023-02-03T00:15:27;-0.20;85.93
74923;HTU21D;64715;44.760;37.678;2023-02-03T00:16:28;-0.19;86.29
74923;HTU21D;64715;44.760;37.678;2023-02-03T00:17:29;-0.19;86.00
74923;HTU21D;64715;44.760;37.678;2023-02-03T00:18:30;-0.20;86.29
74923;HTU21D;64715;44.760;37.678;2023-02-03T00:19:31;-0.19;86.41
74923;HTU21D;64715;44.760;37.678;2023-02-03T00:20:32;-0.20;86.19
74923;HTU21D;64715;44.760;37.678;2023-02-03T00:21:33;-0.21;86.29
74923;HTU21D;64715;44.760;37.678;2023-02-03T00:22:34;-0.22;86.35
74923;HTU21D;64715;44.760;37.678;2023-02-03T00:23:35;-0.21;86.29
74923;HTU21D;64715;44.760;37.678;2023-02-03T00:24:36;-0.22;86.48
74923;HTU21D;64715;44.760;37.678;2023-02-03T00:25:37;-0.22;86.45
74923;HTU21D;64715;44.760;37.678;2023-02-03T00:26:42;-0.22;86.38
74923;HTU21D;64715;44.760;37.678;2023-02-03T00:27:44;-0.25;86.36
74923;HTU21D;64715;44.760;37.678;2023-02-03T00:28:45;-0.23;86.34
74923;HTU21D;64715;44.760;37.678;2023-02-03T00:29:47;-0.23;86.32
74923;HTU21D;64715;44.760;37.678;2023-02-03T00:30:48;-0.24;86.23
74923;HTU21D;64715;44.760;37.678;2023-02-03T00:31:49;-0.24;86.32
74923;HTU21D;64715;44.760;37.678;2023-02-03T00:32:50;-0.24;86.46
74923;HTU21D;64715;44.760;37.678;2023-02-03T00:33:56;-0.26;86.43
74923;HTU21D;64715;44.760;37.678;2023-02-03T00:34:57;-0.25;86.43
74923;HTU21D;64715;44.760;37.678;2023-02-03T00:36:03;-0.25;86.44
74923;HTU21D;64715;44.760;37.678;2023-02-03T00:37:04;-0.26;86.47
74923;HTU21D;64715;44.760;37.678;2023-02-03T00:38:05;-0.26;86.45
74923;HTU21D;64715;44.760;37.678;2023-02-03T00:39:06;-0.26;86.55
74923;HTU21D;64715;44.760;37.678;2023-02-03T00:40:08;-0.28;86.45
74923;HTU21D;64715;44.760;37.678;2023-02-03T00:41:09;-0.29;86.61
74923;HTU21D;64715;44.760;37.678;2023-02-03T00:42:10;-0.30;86.48
74923;HTU21D;64715;44.760;37.678;2023-02-03T00:43:11;-0.30;86.64
74923;HTU21D;64715;44.760;37.678;2023-02-03T00:44:13;-0.30;86.56
74923;HTU21D;64715;44.760;37.678;2023-02-03T00:45:14;-0.31;86.77
74923;HTU21D;64715;44.760;37.678;2023-02-03T00:46:15;-0.32;86.63
74923;HTU21D;64715;44.760;37.678;2023-02-03T00:47:16;-0.32;86.58
74923;HTU21D;64715;44.760;37.678;2023-02-03T00:48:17;-0.31;86.70
74923;HTU21D;64715;44.760;37.678;2023-02-03T00:49:18;-0.31;86.74
74923;HTU21D;64715;44.760;37.678;2023-02-03T00:50:19;-0.34;86.71
74923;HTU21D;64715;44.760;37.678;2023-02-03T00:51:20;-0.32;86.75
74923;HTU21D;64715;44.760;37.678;2023-02-03T00:52:21;-0.32;86.62
74923;HTU21D;64715;44.760;37.678;2023-02-03T00:53:22;-0.32;86.81
74923;HTU21D;64715;44.760;37.678;2023-02-03T00:54:23;-0.32;87.03
74923;HTU21D;64715;44.760;37.678;2023-02-03T00:55:24;-0.32;87.06
74923;HTU21D;64715;44.760;37.678;2023-02-03T00:56:25;-0.31;86.67
74923;HTU21D;64715;44.760;37.678;2023-02-03T00:57:26;-0.31;86.72
74923;HTU21D;64715;44.760;37.678;2023-02-03T00:58:27;-0.32;86.70
74923;HTU21D;64715;44.760;37.678;2023-02-03T00:59:28;-0.34;86.65
74923;HTU21D;64715;44.760;37.678;2023-02-03T01:00:29;-0.36;86.76
74923;HTU21D;64715;44.760;37.678;2023-02-03T01:01:30;-0.37;86.73
74923;HTU21D;64715;44.760;37.678;2023-02-03T01:02:31;-0.36;86.51
74923;HTU21D;64715;44.760;37.678;2023-02-03T01:03:32;-0.37;86.64
74923;HTU21D;64715;44.760;37.678;2023-02-03T01:04:34;-0.37;86.64
74923;HTU21D;64715;44.760;37.678;2023-02-03T01:05:35;-0.37;86.82
74923;HTU21D;64715;44.760;37.678;2023-02-03T01:06:36;-0.36;86.61
74923;HTU21D;64715;44.760;37.678;2023-02-03T01:07:37;-0.36;86.62
74923;HTU21D;64715;44.760;37.678;2023-02-03T01:08:38;-0.38;86.88
74923;HTU21D;64715;44.760;37.678;2023-02-03T01:09:40;-0.37;86.67
74923;HTU21D;64715;44.760;37.678;2023-02-03T01:10:41;-0.37;86.81
74923;HTU21D;64715;44.760;37.678;2023-02-03T01:11:42;-0.36;86.66
74923;HTU21D;64715;44.760;37.678;2023-02-03T01:12:43;-0.37;86.62
74923;HTU21D;64715;44.760;37.678;2023-02-03T01:13:44;-0.37;86.83
74923;HTU21D;64715;44.760;37.678;2023-02-03T01:14:45;-0.34;87.03
74923;HTU21D;64715;44.760;37.678;2023-02-03T01:15:46;-0.35;87.09
74923;HTU21D;64715;44.760;37.678;2023-02-03T01:16:47;-0.31;87.09
74923;HTU21D;64715;44.760;37.678;2023-02-03T01:17:48;-0.34;86.74
74923;HTU21D;64715;44.760;37.678;2023-02-03T01:18:51;-0.32;87.13
74923;HTU21D;64715;44.760;37.678;2023-02-03T01:19:52;-0.32;86.97
74923;HTU21D;64715;44.760;37.678;2023-02-03T01:20:53;-0.30;86.82
74923;HTU21D;64715;44.760;37.678;2023-02-03T01:21:54;-0.29;86.90
74923;HTU21D;64715;44.760;37.678;2023-02-03T01:22:56;-0.29;86.89
74923;HTU21D;64715;44.760;37.678;2023-02-03T01:23:58;-0.28;87.13
74923;HTU21D;64715;44.760;37.678;2023-02-03T01:24:59;-0.27;86.81
74923;HTU21D;64715;44.760;37.678;2023-02-03T01:26:04;-0.27;87.03
74923;HTU21D;64715;44.760;37.678;2023-02-03T01:27:05;-0.27;87.10
74923;HTU21D;64715;44.760;37.678;2023-02-03T01:28:06;-0.26;86.85
74923;HTU21D;64715;44.760;37.678;2023-02-03T01:29:08;-0.25;87.08
74923;HTU21D;64715;44.760;37.678;2023-02-03T01:30:10;-0.25;86.99
74923;HTU21D;64715;44.760;37.678;2023-02-03T01:31:19;-0.23;87.36
74923;HTU21D;64715;44.760;37.678;2023-02-03T01:32:21;-0.21;87.62
74923;HTU21D;64715;44.760;37.678;2023-02-03T01:33:22;-0.22;87.10
74923;HTU21D;64715;44.760;37.678;2023-02-03T01:34:23;-0.16;87.05
74923;HTU21D;64715;44.760;37.678;2023-02-03T01:35:24;-0.16;87.46
74923;HTU21D;64715;44.760;37.678;2023-02-03T01:36:28;-0.14;87.15
74923;HTU21D;64715;44.760;37.678;2023-02-03T01:37:29;-0.11;87.31
74923;HTU21D;64715;44.760;37.678;2023-02-03T01:38:30;-0.11;87.45
74923;HTU21D;64715;44.760;37.678;2023-02-03T01:39:31;-0.10;87.23
74923;HTU21D;64715;44.760;37.678;2023-02-03T01:40:41;-0.09;87.39
74923;HTU21D;64715;44.760;37.678;2023-02-03T01:41:42;-0.09;87.42
74923;HTU21D;64715;44.760;37.678;2023-02-03T01:42:47;-0.07;87.24
74923;HTU21D;64715;44.760;37.678;2023-02-03T01:43:51;-0.07;87.26
74923;HTU21D;64715;44.760;37.678;2023-02-03T01:44:52;-0.08;87.25
74923;HTU21D;64715;44.760;37.678;2023-02-03T01:45:54;-0.09;87.09
74923;HTU21D;64715;44.760;37.678;2023-02-03T01:46:55;-0.09;87.06
74923;HTU21D;64715;44.760;37.678;2023-02-03T01:47:58;-0.08;87.25
74923;HTU21D;64715;44.760;37.678;2023-02-03T01:49:26;-0.09;87.22
74923;HTU21D;64715;44.760;37.678;2023-02-03T01:50:33;-0.08;87.03
74923;HTU21D;64715;44.760;37.678;2023-02-03T01:51:38;-0.08;87.05
74923;HTU21D;64715;44.760;37.678;2023-02-03T01:52:41;-0.07;87.13
74923;HTU21D;64715;44.760;37.678;2023-02-03T01:53:43;-0.06;87.49
74923;HTU21D;64715;44.760;37.678;2023-02-03T01:54:46;-0.05;87.29
74923;HTU21D;64715;44.760;37.678;2023-02-03T01:55:48;-0.03;87.53
74923;HTU21D;64715;44.760;37.678;2023-02-03T01:56:55;-0.02;87.54
74923;HTU21D;64715;44.760;37.678;2023-02-03T01:58:21;-0.00;87.41
74923;HTU21D;64715;44.760;37.678;2023-02-03T01:59:27;0.02;87.30
74923;HTU21D;64715;44.760;37.678;2023-02-03T02:00:30;0.02;87.52
74923;HTU21D;64715;44.760;37.678;2023-02-03T02:01:32;0.05;87.57
74923;HTU21D;64715;44.760;37.678;2023-02-03T02:02:34;0.04;87.45
74923;HTU21D;64715;44.760;37.678;2023-02-03T02:03:41;0.07;87.66
74923;HTU21D;64715;44.760;37.678;2023-02-03T02:06:04;0.09;87.39
74923;HTU21D;64715;44.760;37.678;2023-02-03T02:07:07;0.12;87.61
74923;HTU21D;64715;44.760;37.678;2023-02-03T02:08:11;0.13;87.52
74923;HTU21D;64715;44.760;37.678;2023-02-03T02:09:13;0.16;87.79
74923;HTU21D;64715;44.760;37.678;2023-02-03T02:10:16;0.19;87.65
74923;HTU21D;64715;44.760;37.678;2023-02-03T02:11:18;0.20;87.85
74923;HTU21D;64715;44.760;37.678;2023-02-03T02:12:21;0.22;87.51
74923;HTU21D;64715;44.760;37.678;2023-02-03T02:13:22;0.24;87.80
74923;HTU21D;64715;44.760;37.678;2023-02-03T02:14:24;0.27;87.67
74923;HTU21D;64715;44.760;37.678;2023-02-03T02:15:34;0.30;87.86
74923;HTU21D;64715;44.760;37.678;2023-02-03T02:18:10;0.35;88.07
74923;HTU21D;64715;44.760;37.678;2023-02-03T02:21:07;0.35;87.82
74923;HTU21D;64715;44.760;37.678;2023-02-03T02:22:21;0.37;88.13
74923;HTU21D;64715;44.760;37.678;2023-02-03T02:23:40;0.40;87.70
74923;HTU21D;64715;44.760;37.678;2023-02-03T02:25:01;0.42;88.06
74923;HTU21D;64715;44.760;37.678;2023-02-03T02:26:41;0.46;87.80
74923;HTU21D;64715;44.760;37.678;2023-02-03T02:33:35;0.64;88.09
74923;HTU21D;64715;44.760;37.678;2023-02-03T02:35:00;0.67;87.84
74923;HTU21D;64715;44.760;37.678;2023-02-03T02:40:18;0.75;87.99
74923;HTU21D;64715;44.760;37.678;2023-02-03T02:41:51;0.74;87.86
74923;HTU21D;64715;44.760;37.678;2023-02-03T02:43:24;0.72;87.94
74923;HTU21D;64715;44.760;37.678;2023-02-03T02:44:32;0.71;87.92
74923;HTU21D;64715;44.760;37.678;2023-02-03T02:45:52;0.69;87.79
74923;HTU21D;64715;44.760;37.678;2023-02-03T02:46:59;0.65;87.89
74923;HTU21D;64715;44.760;37.678;2023-02-03T02:48:06;0.63;87.48
74923;HTU21D;64715;44.760;37.678;2023-02-03T02:49:13;0.62;87.61
74923;HTU21D;64715;44.760;37.678;2023-02-03T02:50:22;0.59;87.66
74923;HTU21D;64715;44.760;37.678;2023-02-03T02:51:28;0.59;87.56
74923;HTU21D;64715;44.760;37.678;2023-02-03T02:52:33;0.57;87.51
74923;HTU21D;64715;44.760;37.678;2023-02-03T02:53:39;0.57;87.41
74923;HTU21D;64715;44.760;37.678;2023-02-03T02:54:45;0.54;87.83
74923;HTU21D;64715;44.760;37.678;2023-02-03T02:55:48;0.51;87.15
74923;HTU21D;64715;44.760;37.678;2023-02-03T02:56:53;0.51;87.62
74923;HTU21D;64715;44.760;37.678;2023-02-03T02:58:01;0.49;87.58
74923;HTU21D;64715;44.760;37.678;2023-02-03T02:59:05;0.49;87.07
74923;HTU21D;64715;44.760;37.678;2023-02-03T03:00:07;0.46;87.29
74923;HTU21D;64715;44.760;37.678;2023-02-03T03:01:09;0.47;87.43
74923;HTU21D;64715;44.760;37.678;2023-02-03T03:02:12;0.45;87.06
74923;HTU21D;64715;44.760;37.678;2023-02-03T03:03:15;0.44;87.16
74923;HTU21D;64715;44.760;37.678;2023-02-03T03:04:23;0.40;87.04
74923;HTU21D;64715;44.760;37.678;2023-02-03T03:05:27;0.40;87.03
74923;HTU21D;64715;44.760;37.678;2023-02-03T03:06:32;0.39;87.02
74923;HTU21D;64715;44.760;37.678;2023-02-03T03:07:44;0.36;87.14
74923;HTU21D;64715;44.760;37.678;2023-02-03T03:08:57;0.35;87.17
74923;HTU21D;64715;44.760;37.678;2023-02-03T03:10:05;0.35;87.17
74923;HTU21D;64715;44.760;37.678;2023-02-03T03:11:07;0.31;87.11
74923;HTU21D;64715;44.760;37.678;2023-02-03T03:12:21;0.32;87.11
74923;HTU21D;64715;44.760;37.678;2023-02-03T03:13:31;0.30;87.06
74923;HTU21D;64715;44.760;37.678;2023-02-03T03:14:34;0.31;87.01
74923;HTU21D;64715;44.760;37.678;2023-02-03T03:15:37;0.30;87.16
74923;HTU21D;64715;44.760;37.678;2023-02-03T03:16:41;0.29;86.86
74923;HTU21D;64715;44.760;37.678;2023-02-03T03:17:57;0.31;87.28
74923;HTU21D;64715;44.760;37.678;2023-02-03T03:19:09;0.31;87.19
74923;HTU21D;64715;44.760;37.678;2023-02-03T03:20:15;0.31;87.41
74923;HTU21D;64715;44.760;37.678;2023-02-03T03:21:23;0.34;87.54
74923;HTU21D;64715;44.760;37.678;2023-02-03T03:22:29;0.34;87.57
74923;HTU21D;64715;44.760;37.678;2023-02-03T03:23:37;0.35;87.63
74923;HTU21D;64715;44.760;37.678;2023-02-03T03:24:49;0.35;87.25
74923;HTU21D;64715;44.760;37.678;2023-02-03T03:26:11;0.37;87.67
74923;HTU21D;64715;44.760;37.678;2023-02-03T03:27:28;0.37;87.89
74923;HTU21D;64715;44.760;37.678;2023-02-03T03:30:09;0.36;87.50
74923;HTU21D;64715;44.760;37.678;2023-02-03T03:31:11;0.37;87.41
74923;HTU21D;64715;44.760;37.678;2023-02-03T03:32:14;0.36;87.58
74923;HTU21D;64715;44.760;37.678;2023-02-03T03:33:15;0.36;87.48
74923;HTU21D;64715;44.760;37.678;2023-02-03T03:34:16;0.37;87.46
74923;HTU21D;64715;44.760;37.678;2023-02-03T03:35:18;0.36;87.58
74923;HTU21D;64715;44.760;37.678;2023-02-03T03:36:29;0.36;87.48
74923;HTU21D;64715;44.760;37.678;2023-02-03T03:38:52;0.37;87.82
74923;HTU21D;64715;44.760;37.678;2023-02-03T03:39:58;0.37;87.45
74923;HTU21D;64715;44.760;37.678;2023-02-03T03:41:07;0.37;87.64
74923;HTU21D;64715;44.760;37.678;2023-02-03T03:43:18;0.37;87.60
74923;HTU21D;64715;44.760;37.678;2023-02-03T03:44:21;0.39;87.76
74923;HTU21D;64715;44.760;37.678;2023-02-03T03:45:40;0.40;87.63
74923;HTU21D;64715;44.760;37.678;2023-02-03T03:46:51;0.40;87.86
74923;HTU21D;64715;44.760;37.678;2023-02-03T03:48:36;0.45;87.75
74923;HTU21D;64715;44.760;37.678;2023-02-03T03:49:36;0.44;87.60
74923;HTU21D;64715;44.760;37.678;2023-02-03T03:50:46;0.44;87.77
74923;HTU21D;64715;44.760;37.678;2023-02-03T03:51:53;0.43;87.83
74923;HTU21D;64715;44.760;37.678;2023-02-03T03:52:58;0.44;87.69
74923;HTU21D;64715;44.760;37.678;2023-02-03T03:54:06;0.42;87.99
74923;HTU21D;64715;44.760;37.678;2023-02-03T03:55:09;0.44;87.73
74923;HTU21D;64715;44.760;37.678;2023-02-03T03:56:15;0.44;87.63
74923;HTU21D;64715;44.760;37.678;2023-02-03T03:57:31;0.45;87.78
74923;HTU21D;64715;44.760;37.678;2023-02-03T03:58:35;0.47;87.78
74923;HTU21D;64715;44.760;37.678;2023-02-03T03:59:40;0.46;87.71
74923;HTU21D;64715;44.760;37.678;2023-02-03T04:00:43;0.45;88.28
74923;HTU21D;64715;44.760;37.678;2023-02-03T04:01:46;0.49;88.19
74923;HTU21D;64715;44.760;37.678;2023-02-03T04:02:51;0.50;87.70
74923;HTU21D;64715;44.760;37.678;2023-02-03T04:03:57;0.51;87.93
74923;HTU21D;64715;44.760;37.678;2023-02-03T04:05:00;0.53;87.89
74923;HTU21D;64715;44.760;37.678;2023-02-03T04:06:01;0.54;87.98
74923;HTU21D;64715;44.760;37.678;2023-02-03T04:07:02;0.52;87.83
74923;HTU21D;64715;44.760;37.678;2023-02-03T04:08:03;0.53;87.80
74923;HTU21D;64715;44.760;37.678;2023-02-03T04:09:05;0.53;87.88
74923;HTU21D;64715;44.760;37.678;2023-02-03T04:10:17;0.53;87.83
74923;HTU21D;64715;44.760;37.678;2023-02-03T04:11:21;0.53;87.80
74923;HTU21D;64715;44.760;37.678;2023-02-03T04:12:41;0.51;87.70
74923;HTU21D;64715;44.760;37.678;2023-02-03T04:13:42;0.48;87.39
74923;HTU21D;64715;44.760;37.678;2023-02-03T04:14:43;0.49;88.02
74923;HTU21D;64715;44.760;37.678;2023-02-03T04:15:44;0.48;87.62
74923;HTU21D;64715;44.760;37.678;2023-02-03T04:16:45;0.47;87.61
74923;HTU21D;64715;44.760;37.678;2023-02-03T04:17:46;0.47;87.43
74923;HTU21D;64715;44.760;37.678;2023-02-03T04:18:47;0.47;87.66
74923;HTU21D;64715;44.760;37.678;2023-02-03T04:19:48;0.48;87.67
74923;HTU21D;64715;44.760;37.678;2023-02-03T04:20:49;0.45;87.67
74923;HTU21D;64715;44.760;37.678;2023-02-03T04:21:50;0.47;87.55
74923;HTU21D;64715;44.760;37.678;2023-02-03T04:22:51;0.49;88.04
74923;HTU21D;64715;44.760;37.678;2023-02-03T04:23:52;0.48;87.64
74923;HTU21D;64715;44.760;37.678;2023-02-03T04:24:56;0.50;87.38
74923;HTU21D;64715;44.760;37.678;2023-02-03T04:26:00;0.50;87.80
74923;HTU21D;64715;44.760;37.678;2023-02-03T04:27:01;0.52;87.77
74923;HTU21D;64715;44.760;37.678;2023-02-03T04:28:02;0.54;87.76
74923;HTU21D;64715;44.760;37.678;2023-02-03T04:29:03;0.58;87.75
74923;HTU21D;64715;44.760;37.678;2023-02-03T04:30:05;0.58;87.52
74923;HTU21D;64715;44.760;37.678;2023-02-03T04:31:06;0.60;87.80
74923;HTU21D;64715;44.760;37.678;2023-02-03T04:32:07;0.63;87.86
74923;HTU21D;64715;44.760;37.678;2023-02-03T04:33:08;0.65;87.98
74923;HTU21D;64715;44.760;37.678;2023-02-03T04:34:09;0.65;87.96
74923;HTU21D;64715;44.760;37.678;2023-02-03T04:35:11;0.65;87.90
74923;HTU21D;64715;44.760;37.678;2023-02-03T04:36:12;0.68;87.89
74923;HTU21D;64715;44.760;37.678;2023-02-03T04:37:13;0.69;87.77
74923;HTU21D;64715;44.760;37.678;2023-02-03T04:38:14;0.71;87.77
74923;HTU21D;64715;44.760;37.678;2023-02-03T04:39:15;0.73;88.09
74923;HTU21D;64715;44.760;37.678;2023-02-03T04:40:16;0.74;87.80
74923;HTU21D;64715;44.760;37.678;2023-02-03T04:41:17;0.76;88.15
74923;HTU21D;64715;44.760;37.678;2023-02-03T04:42:18;0.78;87.75
74923;HTU21D;64715;44.760;37.678;2023-02-03T04:43:19;0.79;88.14
74923;HTU21D;64715;44.760;37.678;2023-02-03T04:44:20;0.81;87.96
74923;HTU21D;64715;44.760;37.678;2023-02-03T04:45:21;0.83;88.12
74923;HTU21D;64715;44.760;37.678;2023-02-03T04:46:22;0.84;87.93
74923;HTU21D;64715;44.760;37.678;2023-02-03T04:47:23;0.84;87.99
74923;HTU21D;64715;44.760;37.678;2023-02-03T04:48:24;0.86;88.07
74923;HTU21D;64715;44.760;37.678;2023-02-03T04:49:25;0.84;87.80
74923;HTU21D;64715;44.760;37.678;2023-02-03T04:50:26;0.87;88.27
74923;HTU21D;64715;44.760;37.678;2023-02-03T04:51:27;0.87;88.04
74923;HTU21D;64715;44.760;37.678;2023-02-03T04:52:28;0.89;88.33
74923;HTU21D;64715;44.760;37.678;2023-02-03T04:53:30;0.88;88.28
74923;HTU21D;64715;44.760;37.678;2023-02-03T04:54:31;0.89;88.18
74923;HTU21D;64715;44.760;37.678;2023-02-03T04:55:32;0.90;87.91
74923;HTU21D;64715;44.760;37.678;2023-02-03T04:56:33;0.91;88.05
74923;HTU21D;64715;44.760;37.678;2023-02-03T04:57:34;0.94;88.01
74923;HTU21D;64715;44.760;37.678;2023-02-03T04:58:35;0.96;88.02
74923;HTU21D;64715;44.760;37.678;2023-02-03T04:59:36;0.98;88.09
74923;HTU21D;64715;44.760;37.678;2023-02-03T05:00:37;1.01;87.89
74923;HTU21D;64715;44.760;37.678;2023-02-03T05:01:38;1.02;88.26
74923;HTU21D;64715;44.760;37.678;2023-02-03T05:02:39;1.05;87.89
74923;HTU21D;64715;44.760;37.678;2023-02-03T05:03:40;1.04;88.26
74923;HTU21D;64715;44.760;37.678;2023-02-03T05:04:41;1.07;88.22
74923;HTU21D;64715;44.760;37.678;2023-02-03T05:05:42;1.08;88.10
74923;HTU21D;64715;44.760;37.678;2023-02-03T05:06:43;1.12;88.06
74923;HTU21D;64715;44.760;37.678;2023-02-03T05:07:44;1.14;88.39
74923;HTU21D;64715;44.760;37.678;2023-02-03T05:08:45;1.17;88.43
74923;HTU21D;64715;44.760;37.678;2023-02-03T05:09:46;1.21;88.55
74923;HTU21D;64715;44.760;37.678;2023-02-03T05:10:47;1.22;88.50
74923;HTU21D;64715;44.760;37.678;2023-02-03T05:11:48;1.25;88.09
74923;HTU21D;64715;44.760;37.678;2023-02-03T05:12:49;1.27;88.56
74923;HTU21D;64715;44.760;37.678;2023-02-03T05:13:50;1.27;88.40
74923;HTU21D;64715;44.760;37.678;2023-02-03T05:14:52;1.29;88.25
74923;HTU21D;64715;44.760;37.678;2023-02-03T05:15:53;1.35;88.21
74923;HTU21D;64715;44.760;37.678;2023-02-03T05:16:54;1.37;88.51
74923;HTU21D;64715;44.760;37.678;2023-02-03T05:17:56;1.39;88.44
74923;HTU21D;64715;44.760;37.678;2023-02-03T05:18:57;1.42;88.78
74923;HTU21D;64715;44.760;37.678;2023-02-03T05:19:57;1.46;88.57
74923;HTU21D;64715;44.760;37.678;2023-02-03T05:20:59;1.48;88.71
74923;HTU21D;64715;44.760;37.678;2023-02-03T05:22:00;1.49;88.40
74923;HTU21D;64715;44.760;37.678;2023-02-03T05:23:01;1.51;88.46
74923;HTU21D;64715;44.760;37.678;2023-02-03T05:24:03;1.50;88.70
74923;HTU21D;64715;44.760;37.678;2023-02-03T05:25:06;1.53;88.44
74923;HTU21D;64715;44.760;37.678;2023-02-03T05:26:08;1.54;88.43
74923;HTU21D;64715;44.760;37.678;2023-02-03T05:27:09;1.54;88.34
74923;HTU21D;64715;44.760;37.678;2023-02-03T05:28:10;1.58;88.54
74923;HTU21D;64715;44.760;37.678;2023-02-03T05:29:11;1.56;88.51
74923;HTU21D;64715;44.760;37.678;2023-02-03T05:30:12;1.57;88.44
74923;HTU21D;64715;44.760;37.678;2023-02-03T05:31:13;1.58;88.67
74923;HTU21D;64715;44.760;37.678;2023-02-03T05:32:14;1.60;88.63
74923;HTU21D;64715;44.760;37.678;2023-02-03T05:33:15;1.63;88.52
74923;HTU21D;64715;44.760;37.678;2023-02-03T05:34:16;1.64;88.60
74923;HTU21D;64715;44.760;37.678;2023-02-03T05:35:17;1.67;88.66
74923;HTU21D;64715;44.760;37.678;2023-02-03T05:36:19;1.69;88.70
74923;HTU21D;64715;44.760;37.678;2023-02-03T05:37:20;1.68;88.47
74923;HTU21D;64715;44.760;37.678;2023-02-03T05:38:21;1.71;88.73
74923;HTU21D;64715;44.760;37.678;2023-02-03T05:39:22;1.73;88.70
74923;HTU21D;64715;44.760;37.678;2023-02-03T05:40:23;1.75;88.76
74923;HTU21D;64715;44.760;37.678;2023-02-03T05:41:43;1.76;88.39
74923;HTU21D;64715;44.760;37.678;2023-02-03T05:42:53;1.78;88.44
74923;HTU21D;64715;44.760;37.678;2023-02-03T05:43:54;1.77;88.87
74923;HTU21D;64715;44.760;37.678;2023-02-03T05:44:55;1.79;88.64
74923;HTU21D;64715;44.760;37.678;2023-02-03T05:45:59;1.80;88.40
74923;HTU21D;64715;44.760;37.678;2023-02-03T05:47:01;1.82;88.73
74923;HTU21D;64715;44.760;37.678;2023-02-03T05:48:02;1.81;88.20
74923;HTU21D;64715;44.760;37.678;2023-02-03T05:49:05;1.81;88.64
74923;HTU21D;64715;44.760;37.678;2023-02-03T05:50:06;1.81;88.02
74923;HTU21D;64715;44.760;37.678;2023-02-03T05:51:07;1.81;88.23
74923;HTU21D;64715;44.760;37.678;2023-02-03T05:52:08;1.83;88.30
74923;HTU21D;64715;44.760;37.678;2023-02-03T05:53:09;1.84;88.33
74923;HTU21D;64715;44.760;37.678;2023-02-03T05:54:10;1.83;88.12
74923;HTU21D;64715;44.760;37.678;2023-02-03T05:55:12;1.84;87.96
74923;HTU21D;64715;44.760;37.678;2023-02-03T05:56:13;1.85;88.43
74923;HTU21D;64715;44.760;37.678;2023-02-03T05:57:14;1.86;88.27
74923;HTU21D;64715;44.760;37.678;2023-02-03T05:58:15;1.88;88.33
74923;HTU21D;64715;44.760;37.678;2023-02-03T05:59:16;1.90;88.55
74923;HTU21D;64715;44.760;37.678;2023-02-03T06:00:18;1.94;88.30
74923;HTU21D;64715;44.760;37.678;2023-02-03T06:01:21;1.93;88.15
74923;HTU21D;64715;44.760;37.678;2023-02-03T06:02:22;1.96;88.64
74923;HTU21D;64715;44.760;37.678;2023-02-03T06:03:23;1.98;88.63
74923;HTU21D;64715;44.760;37.678;2023-02-03T06:04:24;2.03;88.47
74923;HTU21D;64715;44.760;37.678;2023-02-03T06:05:25;2.05;88.42
74923;HTU21D;64715;44.760;37.678;2023-02-03T06:06:27;2.07;88.61
74923;HTU21D;64715;44.760;37.678;2023-02-03T06:07:33;2.10;88.66
74923;HTU21D;64715;44.760;37.678;2023-02-03T06:08:36;2.12;88.53
74923;HTU21D;64715;44.760;37.678;2023-02-03T06:09:37;2.17;88.60
74923;HTU21D;64715;44.760;37.678;2023-02-03T06:10:38;2.19;88.56
74923;HTU21D;64715;44.760;37.678;2023-02-03T06:11:39;2.21;88.80
74923;HTU21D;64715;44.760;37.678;2023-02-03T06:12:42;2.26;89.09
74923;HTU21D;64715;44.760;37.678;2023-02-03T06:13:43;2.31;89.05
74923;HTU21D;64715;44.760;37.678;2023-02-03T06:14:44;2.36;89.30
74923;HTU21D;64715;44.760;37.678;2023-02-03T06:15:45;2.41;89.47
74923;HTU21D;64715;44.760;37.678;2023-02-03T06:16:46;2.46;89.28
74923;HTU21D;64715;44.760;37.678;2023-02-03T06:17:48;2.55;89.31
74923;HTU21D;64715;44.760;37.678;2023-02-03T06:18:50;2.58;89.52
74923;HTU21D;64715;44.760;37.678;2023-02-03T06:19:51;2.65;89.65
74923;HTU21D;64715;44.760;37.678;2023-02-03T06:20:52;2.69;89.64
74923;HTU21D;64715;44.760;37.678;2023-02-03T06:21:53;2.76;89.95
74923;HTU21D;64715;44.760;37.678;2023-02-03T06:22:54;2.80;89.57
74923;HTU21D;64715;44.760;37.678;2023-02-03T06:23:55;2.85;89.82
74923;HTU21D;64715;44.760;37.678;2023-02-03T06:24:56;2.90;89.71
74923;HTU21D;64715;44.760;37.678;2023-02-03T06:25:57;2.94;89.88
74923;HTU21D;64715;44.760;37.678;2023-02-03T06:27:00;3.00;90.13
74923;HTU21D;64715;44.760;37.678;2023-02-03T06:28:01;3.04;89.65
74923;HTU21D;64715;44.760;37.678;2023-02-03T06:29:02;3.08;89.86
74923;HTU21D;64715;44.760;37.678;2023-02-03T06:30:04;3.13;89.47
74923;HTU21D;64715;44.760;37.678;2023-02-03T06:31:05;3.15;89.95
74923;HTU21D;64715;44.760;37.678;2023-02-03T06:32:07;3.19;89.88
74923;HTU21D;64715;44.760;37.678;2023-02-03T06:33:08;3.25;89.86
74923;HTU21D;64715;44.760;37.678;2023-02-03T06:34:09;3.29;89.86
74923;HTU21D;64715;44.760;37.678;2023-02-03T06:35:11;3.33;89.81
74923;HTU21D;64715;44.760;37.678;2023-02-03T06:36:12;3.38;89.87
74923;HTU21D;64715;44.760;37.678;2023-02-03T06:37:14;3.41;89.98
74923;HTU21D;64715;44.760;37.678;2023-02-03T06:38:15;3.46;89.70
74923;HTU21D;64715;44.760;37.678;2023-02-03T06:39:16;3.50;89.88
74923;HTU21D;64715;44.760;37.678;2023-02-03T06:40:17;3.54;89.73
74923;HTU21D;64715;44.760;37.678;2023-02-03T06:41:18;3.57;89.65
74923;HTU21D;64715;44.760;37.678;2023-02-03T06:42:19;3.62;89.78
74923;HTU21D;64715;44.760;37.678;2023-02-03T06:43:20;3.65;89.74
74923;HTU21D;64715;44.760;37.678;2023-02-03T06:44:22;3.69;89.66
74923;HTU21D;64715;44.760;37.678;2023-02-03T06:45:23;3.74;89.54
74923;HTU21D;64715;44.760;37.678;2023-02-03T06:46:24;3.76;89.28
74923;HTU21D;64715;44.760;37.678;2023-02-03T06:47:29;3.76;89.44
74923;HTU21D;64715;44.760;37.678;2023-02-03T06:48:30;3.78;89.38
74923;HTU21D;64715;44.760;37.678;2023-02-03T06:49:31;3.82;89.33
74923;HTU21D;64715;44.760;37.678;2023-02-03T06:50:33;3.82;89.48
74923;HTU21D;64715;44.760;37.678;2023-02-03T06:51:34;3.87;89.00